sensor_id;sensor_type;location;lat;lon;timestamp;temperature;humidity
40670;DHT22;26355;45.528;9.234;2022-08-01T00:01:22;29.80;76.40
40670;DHT22;26355;45.528;9.234;2022-08-01T00:03:48;29.80;77.10
40670;DHT22;26355;45.528;9.234;2022-08-01T00:06:14;29.80;75.90
40670;DHT22;26355;45.528;9.234;2022-08-01T00:08:39;29.70;76.20
40670;DHT22;26355;45.528;9.234;2022-08-01T00:11:05;29.70;76.40
40670;DHT22;26355;45.528;9.234;2022-08-01T00:13:31;29.70;76.80
40670;DHT22;26355;45.528;9.234;2022-08-01T00:15:56;29.60;77.10
40670;DHT22;26355;45.528;9.234;2022-08-01T00:18:22;29.60;76.50
40670;DHT22;26355;45.528;9.234;2022-08-01T00:20:48;29.60;76.70
40670;DHT22;26355;45.528;9.234;2022-08-01T00:23:14;29.60;76.90
40670;DHT22;26355;45.528;9.234;2022-08-01T00:25:39;29.60;77.00
40670;DHT22;26355;45.528;9.234;2022-08-01T00:28:05;29.60;77.40
40670;DHT22;26355;45.528;9.234;2022-08-01T00:30:34;29.50;77.80
40670;DHT22;26355;45.528;9.234;2022-08-01T00:33:00;29.50;78.00
40670;DHT22;26355;45.528;9.234;2022-08-01T00:35:26;29.50;77.80
40670;DHT22;26355;45.528;9.234;2022-08-01T00:37:52;29.50;77.60
40670;DHT22;26355;45.528;9.234;2022-08-01T00:40:18;29.40;77.60
40670;DHT22;26355;45.528;9.234;2022-08-01T00:42:43;29.40;77.30
40670;DHT22;26355;45.528;9.234;2022-08-01T00:45:10;29.40;77.50
40670;DHT22;26355;45.528;9.234;2022-08-01T00:47:35;29.40;77.70
40670;DHT22;26355;45.528;9.234;2022-08-01T00:50:03;29.40;77.40
40670;DHT22;26355;45.528;9.234;2022-08-01T00:52:30;29.40;77.40
40670;DHT22;26355;45.528;9.234;2022-08-01T00:54:55;29.40;77.70
40670;DHT22;26355;45.528;9.234;2022-08-01T00:57:21;29.40;78.10
40670;DHT22;26355;45.528;9.234;2022-08-01T00:59:47;29.30;78.80
40670;DHT22;26355;45.528;9.234;2022-08-01T01:02:13;29.40;78.60
40670;DHT22;26355;45.528;9.234;2022-08-01T01:04:38;29.30;78.10
40670;DHT22;26355;45.528;9.234;2022-08-01T01:07:16;29.20;78.90
40670;DHT22;26355;45.528;9.234;2022-08-01T01:09:56;29.10;79.50
40670;DHT22;26355;45.528;9.234;2022-08-01T01:12:30;29.00;80.30
40670;DHT22;26355;45.528;9.234;2022-08-01T01:15:04;28.90;80.40
40670;DHT22;26355;45.528;9.234;2022-08-01T01:17:52;28.80;80.50
40670;DHT22;26355;45.528;9.234;2022-08-01T01:20:36;28.80;81.30
40670;DHT22;26355;45.528;9.234;2022-08-01T01:23:07;28.80;80.80
40670;DHT22;26355;45.528;9.234;2022-08-01T01:31:25;28.70;81.30
40670;DHT22;26355;45.528;9.234;2022-08-01T01:33:53;28.70;81.40
40670;DHT22;26355;45.528;9.234;2022-08-01T01:36:19;28.70;81.20
40670;DHT22;26355;45.528;9.234;2022-08-01T01:38:46;28.70;80.80
40670;DHT22;26355;45.528;9.234;2022-08-01T01:41:15;28.60;81.40
40670;DHT22;26355;45.528;9.234;2022-08-01T01:43:42;28.70;81.00
40670;DHT22;26355;45.528;9.234;2022-08-01T01:46:10;28.60;81.30
40670;DHT22;26355;45.528;9.234;2022-08-01T01:48:36;28.50;81.60
40670;DHT22;26355;45.528;9.234;2022-08-01T01:51:03;28.40;81.40
40670;DHT22;26355;45.528;9.234;2022-08-01T01:53:29;28.50;81.10
40670;DHT22;26355;45.528;9.234;2022-08-01T01:55:58;28.40;81.40
40670;DHT22;26355;45.528;9.234;2022-08-01T01:58:24;28.50;81.20
40670;DHT22;26355;45.528;9.234;2022-08-01T02:00:51;28.30;82.30
40670;DHT22;26355;45.528;9.234;2022-08-01T02:03:17;28.30;82.10
40670;DHT22;26355;45.528;9.234;2022-08-01T02:05:44;28.40;81.70
40670;DHT22;26355;45.528;9.234;2022-08-01T02:08:10;28.40;81.90
40670;DHT22;26355;45.528;9.234;2022-08-01T02:10:36;28.40;81.40
40670;DHT22;26355;45.528;9.234;2022-08-01T02:13:04;28.30;82.10
40670;DHT22;26355;45.528;9.234;2022-08-01T02:15:33;28.40;81.90
40670;DHT22;26355;45.528;9.234;2022-08-01T02:18:01;28.40;82.00
40670;DHT22;26355;45.528;9.234;2022-08-01T02:20:27;28.40;82.40
40670;DHT22;26355;45.528;9.234;2022-08-01T02:23:11;28.30;83.10
40670;DHT22;26355;45.528;9.234;2022-08-01T02:25:44;28.40;82.70
40670;DHT22;26355;45.528;9.234;2022-08-01T02:28:23;28.40;82.10
40670;DHT22;26355;45.528;9.234;2022-08-01T02:30:56;28.40;82.00
40670;DHT22;26355;45.528;9.234;2022-08-01T02:33:33;28.40;82.10
40670;DHT22;26355;45.528;9.234;2022-08-01T02:36:01;28.40;82.40
40670;DHT22;26355;45.528;9.234;2022-08-01T02:38:32;28.30;82.40
40670;DHT22;26355;45.528;9.234;2022-08-01T02:41:00;28.30;82.60
40670;DHT22;26355;45.528;9.234;2022-08-01T02:43:29;28.30;82.40
40670;DHT22;26355;45.528;9.234;2022-08-01T02:46:00;28.20;82.50
40670;DHT22;26355;45.528;9.234;2022-08-01T02:48:27;28.20;82.50
40670;DHT22;26355;45.528;9.234;2022-08-01T02:50:56;28.20;82.50
40670;DHT22;26355;45.528;9.234;2022-08-01T02:53:24;28.10;82.60
40670;DHT22;26355;45.528;9.234;2022-08-01T02:55:51;28.10;82.60
40670;DHT22;26355;45.528;9.234;2022-08-01T02:58:19;28.10;82.50
40670;DHT22;26355;45.528;9.234;2022-08-01T03:00:47;28.10;82.80
40670;DHT22;26355;45.528;9.234;2022-08-01T03:03:14;28.00;83.30
40670;DHT22;26355;45.528;9.234;2022-08-01T03:05:43;27.90;83.70
40670;DHT22;26355;45.528;9.234;2022-08-01T03:08:10;27.80;85.60
40670;DHT22;26355;45.528;9.234;2022-08-01T03:10:38;27.80;85.80
40670;DHT22;26355;45.528;9.234;2022-08-01T03:13:05;27.80;85.90
40670;DHT22;26355;45.528;9.234;2022-08-01T03:15:33;27.80;85.20
40670;DHT22;26355;45.528;9.234;2022-08-01T03:18:00;27.80;85.20
40670;DHT22;26355;45.528;9.234;2022-08-01T03:20:27;27.80;85.30
40670;DHT22;26355;45.528;9.234;2022-08-01T03:22:56;27.80;85.20
40670;DHT22;26355;45.528;9.234;2022-08-01T03:25:24;27.80;85.30
40670;DHT22;26355;45.528;9.234;2022-08-01T03:27:55;27.80;85.50
40670;DHT22;26355;45.528;9.234;2022-08-01T03:30:23;27.80;85.80
40670;DHT22;26355;45.528;9.234;2022-08-01T03:32:49;27.80;85.90
40670;DHT22;26355;45.528;9.234;2022-08-01T03:35:15;27.80;85.80
40670;DHT22;26355;45.528;9.234;2022-08-01T03:37:46;27.70;86.00
40670;DHT22;26355;45.528;9.234;2022-08-01T03:40:25;27.70;86.50
40670;DHT22;26355;45.528;9.234;2022-08-01T03:43:02;27.70;86.70
40670;DHT22;26355;45.528;9.234;2022-08-01T03:45:35;27.60;87.60
40670;DHT22;26355;45.528;9.234;2022-08-01T03:48:07;27.60;88.00
40670;DHT22;26355;45.528;9.234;2022-08-01T03:50:34;27.50;88.20
40670;DHT22;26355;45.528;9.234;2022-08-01T03:53:02;27.60;88.10
40670;DHT22;26355;45.528;9.234;2022-08-01T03:55:30;27.60;88.20
40670;DHT22;26355;45.528;9.234;2022-08-01T03:57:57;27.60;88.30
40670;DHT22;26355;45.528;9.234;2022-08-01T04:00:24;27.60;88.10
40670;DHT22;26355;45.528;9.234;2022-08-01T04:02:51;27.70;88.20
40670;DHT22;26355;45.528;9.234;2022-08-01T04:05:17;27.70;88.50
40670;DHT22;26355;45.528;9.234;2022-08-01T04:07:47;27.70;88.40
40670;DHT22;26355;45.528;9.234;2022-08-01T04:10:13;27.70;89.00
40670;DHT22;26355;45.528;9.234;2022-08-01T04:12:39;27.60;88.40
40670;DHT22;26355;45.528;9.234;2022-08-01T04:15:05;27.60;88.50
40670;DHT22;26355;45.528;9.234;2022-08-01T04:17:31;27.50;88.80
40670;DHT22;26355;45.528;9.234;2022-08-01T04:19:57;27.50;88.70
40670;DHT22;26355;45.528;9.234;2022-08-01T04:22:22;27.50;88.80
40670;DHT22;26355;45.528;9.234;2022-08-01T04:24:51;27.50;88.90
40670;DHT22;26355;45.528;9.234;2022-08-01T04:27:26;27.60;89.30
40670;DHT22;26355;45.528;9.234;2022-08-01T04:29:56;27.60;89.30
40670;DHT22;26355;45.528;9.234;2022-08-01T04:32:23;27.60;89.00
40670;DHT22;26355;45.528;9.234;2022-08-01T04:34:50;27.60;88.90
40670;DHT22;26355;45.528;9.234;2022-08-01T04:37:17;27.70;89.10
40670;DHT22;26355;45.528;9.234;2022-08-01T04:39:44;27.60;88.80
40670;DHT22;26355;45.528;9.234;2022-08-01T04:42:11;27.70;88.90
40670;DHT22;26355;45.528;9.234;2022-08-01T04:44:38;27.70;89.10
40670;DHT22;26355;45.528;9.234;2022-08-01T04:47:05;27.70;89.20
40670;DHT22;26355;45.528;9.234;2022-08-01T04:49:34;27.70;89.20
40670;DHT22;26355;45.528;9.234;2022-08-01T04:52:00;27.70;89.30
40670;DHT22;26355;45.528;9.234;2022-08-01T04:54:34;27.70;88.80
40670;DHT22;26355;45.528;9.234;2022-08-01T04:57:02;27.70;87.90
40670;DHT22;26355;45.528;9.234;2022-08-01T04:59:29;27.70;87.70
40670;DHT22;26355;45.528;9.234;2022-08-01T05:02:11;27.70;88.00
40670;DHT22;26355;45.528;9.234;2022-08-01T05:04:37;27.70;88.40
40670;DHT22;26355;45.528;9.234;2022-08-01T05:07:03;27.80;88.20
40670;DHT22;26355;45.528;9.234;2022-08-01T05:09:29;27.80;88.10
40670;DHT22;26355;45.528;9.234;2022-08-01T05:11:56;27.70;87.80
40670;DHT22;26355;45.528;9.234;2022-08-01T05:14:26;27.70;87.90
40670;DHT22;26355;45.528;9.234;2022-08-01T05:16:52;27.80;88.00
40670;DHT22;26355;45.528;9.234;2022-08-01T05:19:18;27.70;87.90
40670;DHT22;26355;45.528;9.234;2022-08-01T05:21:44;27.80;87.80
40670;DHT22;26355;45.528;9.234;2022-08-01T05:24:10;27.80;87.90
40670;DHT22;26355;45.528;9.234;2022-08-01T05:26:36;27.90;87.90
40670;DHT22;26355;45.528;9.234;2022-08-01T05:29:01;27.90;87.50
40670;DHT22;26355;45.528;9.234;2022-08-01T05:31:27;28.00;87.30
40670;DHT22;26355;45.528;9.234;2022-08-01T05:33:53;28.00;87.00
40670;DHT22;26355;45.528;9.234;2022-08-01T05:36:19;28.00;87.40
40670;DHT22;26355;45.528;9.234;2022-08-01T05:38:44;28.00;87.40
40670;DHT22;26355;45.528;9.234;2022-08-01T05:41:10;28.20;87.50
40670;DHT22;26355;45.528;9.234;2022-08-01T05:43:36;28.20;86.50
40670;DHT22;26355;45.528;9.234;2022-08-01T05:46:02;28.30;87.70
40670;DHT22;26355;45.528;9.234;2022-08-01T05:48:27;28.40;87.70
40670;DHT22;26355;45.528;9.234;2022-08-01T05:50:53;28.50;86.50
40670;DHT22;26355;45.528;9.234;2022-08-01T05:53:19;28.60;86.80
40670;DHT22;26355;45.528;9.234;2022-08-01T05:55:45;28.60;85.70
40670;DHT22;26355;45.528;9.234;2022-08-01T05:58:11;28.70;85.40
40670;DHT22;26355;45.528;9.234;2022-08-01T06:00:36;28.70;85.20
40670;DHT22;26355;45.528;9.234;2022-08-01T06:03:02;28.80;85.20
40670;DHT22;26355;45.528;9.234;2022-08-01T06:05:28;28.90;85.30
40670;DHT22;26355;45.528;9.234;2022-08-01T06:07:53;28.90;84.60
40670;DHT22;26355;45.528;9.234;2022-08-01T06:10:19;29.00;84.40
40670;DHT22;26355;45.528;9.234;2022-08-01T06:12:45;29.00;84.30
40670;DHT22;26355;45.528;9.234;2022-08-01T06:15:11;29.10;84.20
40670;DHT22;26355;45.528;9.234;2022-08-01T06:17:37;29.10;83.90
40670;DHT22;26355;45.528;9.234;2022-08-01T06:20:03;29.10;83.80
40670;DHT22;26355;45.528;9.234;2022-08-01T06:22:29;29.10;83.40
40670;DHT22;26355;45.528;9.234;2022-08-01T06:24:54;29.20;83.20
40670;DHT22;26355;45.528;9.234;2022-08-01T06:27:20;29.20;83.20
40670;DHT22;26355;45.528;9.234;2022-08-01T06:29:46;29.30;83.20
40670;DHT22;26355;45.528;9.234;2022-08-01T06:32:13;29.40;83.30
40670;DHT22;26355;45.528;9.234;2022-08-01T06:34:39;29.50;82.20
40670;DHT22;26355;45.528;9.234;2022-08-01T06:37:04;29.60;81.50
40670;DHT22;26355;45.528;9.234;2022-08-01T06:39:30;29.80;81.40
40670;DHT22;26355;45.528;9.234;2022-08-01T06:41:56;30.10;81.30
40670;DHT22;26355;45.528;9.234;2022-08-01T06:44:21;30.30;81.30
40670;DHT22;26355;45.528;9.234;2022-08-01T06:46:47;30.40;80.40
40670;DHT22;26355;45.528;9.234;2022-08-01T06:49:12;30.60;80.20
40670;DHT22;26355;45.528;9.234;2022-08-01T06:51:38;30.70;79.30
40670;DHT22;26355;45.528;9.234;2022-08-01T06:54:04;30.70;78.10
40670;DHT22;26355;45.528;9.234;2022-08-01T06:56:29;30.90;77.60
40670;DHT22;26355;45.528;9.234;2022-08-01T06:58:56;30.70;77.10
40670;DHT22;26355;45.528;9.234;2022-08-01T07:01:28;30.70;77.00
40670;DHT22;26355;45.528;9.234;2022-08-01T07:03:54;30.90;76.40
40670;DHT22;26355;45.528;9.234;2022-08-01T07:06:21;31.00;75.70
40670;DHT22;26355;45.528;9.234;2022-08-01T07:08:47;31.10;75.60
40670;DHT22;26355;45.528;9.234;2022-08-01T07:11:13;31.20;74.60
40670;DHT22;26355;45.528;9.234;2022-08-01T07:13:38;31.10;75.00
40670;DHT22;26355;45.528;9.234;2022-08-01T07:16:04;31.20;75.10
40670;DHT22;26355;45.528;9.234;2022-08-01T07:18:29;31.20;74.80
40670;DHT22;26355;45.528;9.234;2022-08-01T07:20:55;31.20;74.60
40670;DHT22;26355;45.528;9.234;2022-08-01T07:23:21;31.30;74.50
40670;DHT22;26355;45.528;9.234;2022-08-01T07:25:46;31.30;74.30
40670;DHT22;26355;45.528;9.234;2022-08-01T07:28:14;31.30;74.30
40670;DHT22;26355;45.528;9.234;2022-08-01T07:30:40;31.30;74.50
40670;DHT22;26355;45.528;9.234;2022-08-01T07:33:08;31.30;74.30
40670;DHT22;26355;45.528;9.234;2022-08-01T07:35:34;31.40;74.40
40670;DHT22;26355;45.528;9.234;2022-08-01T07:37:59;31.50;74.30
40670;DHT22;26355;45.528;9.234;2022-08-01T07:40:25;31.50;74.10
40670;DHT22;26355;45.528;9.234;2022-08-01T07:42:51;31.50;74.00
40670;DHT22;26355;45.528;9.234;2022-08-01T07:45:16;31.50;73.50
40670;DHT22;26355;45.528;9.234;2022-08-01T07:47:42;31.50;72.80
40670;DHT22;26355;45.528;9.234;2022-08-01T07:50:08;31.50;72.80
40670;DHT22;26355;45.528;9.234;2022-08-01T07:52:34;31.50;72.50
40670;DHT22;26355;45.528;9.234;2022-08-01T07:54:59;31.60;72.60
40670;DHT22;26355;45.528;9.234;2022-08-01T07:57:25;31.60;72.50
40670;DHT22;26355;45.528;9.234;2022-08-01T07:59:51;31.60;72.40
40670;DHT22;26355;45.528;9.234;2022-08-01T08:02:17;31.60;72.50
40670;DHT22;26355;45.528;9.234;2022-08-01T08:04:43;31.70;72.60
40670;DHT22;26355;45.528;9.234;2022-08-01T08:07:08;31.80;72.70
40670;DHT22;26355;45.528;9.234;2022-08-01T08:09:34;31.80;73.00
40670;DHT22;26355;45.528;9.234;2022-08-01T08:12:00;31.80;73.40
40670;DHT22;26355;45.528;9.234;2022-08-01T08:14:25;31.80;73.40
40670;DHT22;26355;45.528;9.234;2022-08-01T08:16:51;31.80;73.70
40670;DHT22;26355;45.528;9.234;2022-08-01T08:19:17;31.60;74.10
40670;DHT22;26355;45.528;9.234;2022-08-01T08:21:43;31.50;74.20
40670;DHT22;26355;45.528;9.234;2022-08-01T08:24:10;31.40;74.60
40670;DHT22;26355;45.528;9.234;2022-08-01T08:26:45;31.30;74.90
40670;DHT22;26355;45.528;9.234;2022-08-01T08:29:11;31.20;75.20
40670;DHT22;26355;45.528;9.234;2022-08-01T08:31:37;31.20;74.20
40670;DHT22;26355;45.528;9.234;2022-08-01T08:34:03;31.40;74.50
40670;DHT22;26355;45.528;9.234;2022-08-01T08:36:29;31.40;73.90
40670;DHT22;26355;45.528;9.234;2022-08-01T08:38:54;31.40;73.60
40670;DHT22;26355;45.528;9.234;2022-08-01T08:41:21;31.40;73.60
40670;DHT22;26355;45.528;9.234;2022-08-01T08:43:48;31.50;74.00
40670;DHT22;26355;45.528;9.234;2022-08-01T08:46:14;31.60;74.60
40670;DHT22;26355;45.528;9.234;2022-08-01T08:48:41;31.70;74.80
40670;DHT22;26355;45.528;9.234;2022-08-01T08:51:08;31.60;74.70
40670;DHT22;26355;45.528;9.234;2022-08-01T08:53:38;31.50;74.80
40670;DHT22;26355;45.528;9.234;2022-08-01T08:56:06;31.40;74.70
40670;DHT22;26355;45.528;9.234;2022-08-01T08:58:35;31.60;74.80
40670;DHT22;26355;45.528;9.234;2022-08-01T09:01:05;31.60;74.80
40670;DHT22;26355;45.528;9.234;2022-08-01T09:03:32;31.60;74.00
40670;DHT22;26355;45.528;9.234;2022-08-01T09:05:58;31.50;73.80
40670;DHT22;26355;45.528;9.234;2022-08-01T09:08:24;31.50;74.50
40670;DHT22;26355;45.528;9.234;2022-08-01T09:10:49;31.60;74.50
40670;DHT22;26355;45.528;9.234;2022-08-01T09:13:15;31.60;74.20
40670;DHT22;26355;45.528;9.234;2022-08-01T09:15:43;31.50;73.90
40670;DHT22;26355;45.528;9.234;2022-08-01T09:18:35;31.50;73.50
40670;DHT22;26355;45.528;9.234;2022-08-01T09:23:48;31.70;72.70
40670;DHT22;26355;45.528;9.234;2022-08-01T09:26:16;31.70;74.00
40670;DHT22;26355;45.528;9.234;2022-08-01T09:28:42;31.90;74.10
40670;DHT22;26355;45.528;9.234;2022-08-01T09:31:11;31.90;73.80
40670;DHT22;26355;45.528;9.234;2022-08-01T09:36:15;32.00;73.00
40670;DHT22;26355;45.528;9.234;2022-08-01T09:38:41;32.10;73.20
40670;DHT22;26355;45.528;9.234;2022-08-01T09:41:07;32.20;72.80
40670;DHT22;26355;45.528;9.234;2022-08-01T09:43:33;32.30;72.30
40670;DHT22;26355;45.528;9.234;2022-08-01T09:46:04;32.30;72.10
40670;DHT22;26355;45.528;9.234;2022-08-01T09:48:30;32.40;72.10
40670;DHT22;26355;45.528;9.234;2022-08-01T09:50:59;32.50;72.00
40670;DHT22;26355;45.528;9.234;2022-08-01T09:53:24;32.70;72.50
40670;DHT22;26355;45.528;9.234;2022-08-01T09:55:50;32.60;69.80
40670;DHT22;26355;45.528;9.234;2022-08-01T09:58:17;32.70;70.80
40670;DHT22;26355;45.528;9.234;2022-08-01T10:00:58;32.70;70.50
40670;DHT22;26355;45.528;9.234;2022-08-01T10:03:28;32.80;72.90
40670;DHT22;26355;45.528;9.234;2022-08-01T10:05:55;32.90;71.50
40670;DHT22;26355;45.528;9.234;2022-08-01T10:08:22;33.10;71.40
40670;DHT22;26355;45.528;9.234;2022-08-01T10:11:13;33.20;70.90
40670;DHT22;26355;45.528;9.234;2022-08-01T10:13:39;33.20;70.50
40670;DHT22;26355;45.528;9.234;2022-08-01T10:16:06;33.20;70.40
40670;DHT22;26355;45.528;9.234;2022-08-01T10:18:35;33.30;69.70
40670;DHT22;26355;45.528;9.234;2022-08-01T10:21:03;33.30;67.90
40670;DHT22;26355;45.528;9.234;2022-08-01T10:23:34;33.30;69.10
40670;DHT22;26355;45.528;9.234;2022-08-01T10:26:01;33.30;69.80
40670;DHT22;26355;45.528;9.234;2022-08-01T10:28:30;33.40;69.40
40670;DHT22;26355;45.528;9.234;2022-08-01T10:30:57;33.20;69.20
40670;DHT22;26355;45.528;9.234;2022-08-01T10:33:24;33.30;69.80
40670;DHT22;26355;45.528;9.234;2022-08-01T10:35:51;33.50;68.60
40670;DHT22;26355;45.528;9.234;2022-08-01T10:38:17;33.60;68.00
40670;DHT22;26355;45.528;9.234;2022-08-01T10:40:43;33.80;67.40
40670;DHT22;26355;45.528;9.234;2022-08-01T10:43:10;34.30;67.40
40670;DHT22;26355;45.528;9.234;2022-08-01T10:45:36;34.40;66.70
40670;DHT22;26355;45.528;9.234;2022-08-01T10:50:48;34.80;66.50
40670;DHT22;26355;45.528;9.234;2022-08-01T10:53:18;34.80;65.90
40670;DHT22;26355;45.528;9.234;2022-08-01T10:58:32;35.00;64.30
40670;DHT22;26355;45.528;9.234;2022-08-01T11:01:17;34.90;64.70
40670;DHT22;26355;45.528;9.234;2022-08-01T11:04:08;35.00;63.90
40670;DHT22;26355;45.528;9.234;2022-08-01T11:09:03;35.20;64.30
40670;DHT22;26355;45.528;9.234;2022-08-01T11:11:30;35.30;64.00
40670;DHT22;26355;45.528;9.234;2022-08-01T11:14:05;35.20;64.30
40670;DHT22;26355;45.528;9.234;2022-08-01T11:16:39;35.20;64.20
40670;DHT22;26355;45.528;9.234;2022-08-01T11:19:07;35.20;65.30
40670;DHT22;26355;45.528;9.234;2022-08-01T11:27:31;35.60;62.90
40670;DHT22;26355;45.528;9.234;2022-08-01T11:32:48;35.70;64.40
40670;DHT22;26355;45.528;9.234;2022-08-01T11:35:14;36.00;64.10
40670;DHT22;26355;45.528;9.234;2022-08-01T11:37:41;36.10;63.80
40670;DHT22;26355;45.528;9.234;2022-08-01T11:40:27;36.00;63.20
40670;DHT22;26355;45.528;9.234;2022-08-01T11:45:50;35.80;63.00
40670;DHT22;26355;45.528;9.234;2022-08-01T11:48:21;35.70;62.60
40670;DHT22;26355;45.528;9.234;2022-08-01T11:50:52;35.90;63.10
40670;DHT22;26355;45.528;9.234;2022-08-01T11:53:18;36.20;62.60
40670;DHT22;26355;45.528;9.234;2022-08-01T11:55:50;36.40;62.20
40670;DHT22;26355;45.528;9.234;2022-08-01T11:58:21;36.10;61.60
40670;DHT22;26355;45.528;9.234;2022-08-01T12:01:05;36.10;62.60
40670;DHT22;26355;45.528;9.234;2022-08-01T12:03:32;36.40;61.50
40670;DHT22;26355;45.528;9.234;2022-08-01T12:05:58;36.30;61.50
40670;DHT22;26355;45.528;9.234;2022-08-01T12:10:51;36.30;61.40
40670;DHT22;26355;45.528;9.234;2022-08-01T12:13:17;36.10;61.20
40670;DHT22;26355;45.528;9.234;2022-08-01T12:15:46;36.10;61.70
40670;DHT22;26355;45.528;9.234;2022-08-01T12:18:12;36.10;61.00
40670;DHT22;26355;45.528;9.234;2022-08-01T12:20:40;36.00;61.10
40670;DHT22;26355;45.528;9.234;2022-08-01T12:23:11;36.00;60.90
40670;DHT22;26355;45.528;9.234;2022-08-01T12:25:37;36.10;60.20
40670;DHT22;26355;45.528;9.234;2022-08-01T12:28:08;36.30;60.10
40670;DHT22;26355;45.528;9.234;2022-08-01T12:30:35;36.40;60.10
40670;DHT22;26355;45.528;9.234;2022-08-01T12:33:05;36.50;60.40
40670;DHT22;26355;45.528;9.234;2022-08-01T12:35:32;36.60;60.30
40670;DHT22;26355;45.528;9.234;2022-08-01T12:37:59;36.60;60.40
40670;DHT22;26355;45.528;9.234;2022-08-01T12:40:37;36.70;60.00
40670;DHT22;26355;45.528;9.234;2022-08-01T12:43:07;36.90;59.20
40670;DHT22;26355;45.528;9.234;2022-08-01T12:45:37;36.80;58.50
40670;DHT22;26355;45.528;9.234;2022-08-01T12:48:08;36.80;58.10
40670;DHT22;26355;45.528;9.234;2022-08-01T12:50:37;36.80;57.90
40670;DHT22;26355;45.528;9.234;2022-08-01T12:53:03;36.70;56.90
40670;DHT22;26355;45.528;9.234;2022-08-01T12:55:28;36.80;56.90
40670;DHT22;26355;45.528;9.234;2022-08-01T12:58:11;37.00;57.30
40670;DHT22;26355;45.528;9.234;2022-08-01T13:00:38;37.20;56.60
40670;DHT22;26355;45.528;9.234;2022-08-01T13:03:19;37.20;55.90
40670;DHT22;26355;45.528;9.234;2022-08-01T13:05:48;37.30;55.30
40670;DHT22;26355;45.528;9.234;2022-08-01T13:08:19;37.30;55.20
40670;DHT22;26355;45.528;9.234;2022-08-01T13:10:45;37.00;55.30
40670;DHT22;26355;45.528;9.234;2022-08-01T13:13:13;37.20;54.90
40670;DHT22;26355;45.528;9.234;2022-08-01T13:15:40;37.40;55.20
40670;DHT22;26355;45.528;9.234;2022-08-01T13:18:29;37.70;55.70
40670;DHT22;26355;45.528;9.234;2022-08-01T13:21:18;38.00;55.70
40670;DHT22;26355;45.528;9.234;2022-08-01T13:24:06;38.10;55.80
40670;DHT22;26355;45.528;9.234;2022-08-01T13:29:18;38.30;54.90
40670;DHT22;26355;45.528;9.234;2022-08-01T13:31:44;38.20;55.30
40670;DHT22;26355;45.528;9.234;2022-08-01T13:34:10;38.30;56.10
40670;DHT22;26355;45.528;9.234;2022-08-01T13:36:36;38.10;56.00
40670;DHT22;26355;45.528;9.234;2022-08-01T13:39:03;38.00;56.10
40670;DHT22;26355;45.528;9.234;2022-08-01T13:41:47;38.00;56.30
40670;DHT22;26355;45.528;9.234;2022-08-01T13:44:13;37.90;56.20
40670;DHT22;26355;45.528;9.234;2022-08-01T13:46:40;37.80;55.60
40670;DHT22;26355;45.528;9.234;2022-08-01T13:49:07;37.70;55.60
40670;DHT22;26355;45.528;9.234;2022-08-01T13:51:34;37.60;54.60
40670;DHT22;26355;45.528;9.234;2022-08-01T13:54:00;37.60;53.90
40670;DHT22;26355;45.528;9.234;2022-08-01T13:56:26;37.40;54.10
40670;DHT22;26355;45.528;9.234;2022-08-01T13:58:55;37.40;54.60
40670;DHT22;26355;45.528;9.234;2022-08-01T14:01:21;37.40;54.40
40670;DHT22;26355;45.528;9.234;2022-08-01T14:03:47;37.40;53.90
40670;DHT22;26355;45.528;9.234;2022-08-01T14:06:14;37.40;54.50
40670;DHT22;26355;45.528;9.234;2022-08-01T14:08:43;37.30;54.20
40670;DHT22;26355;45.528;9.234;2022-08-01T14:11:09;37.20;53.40
40670;DHT22;26355;45.528;9.234;2022-08-01T14:13:35;37.30;53.80
40670;DHT22;26355;45.528;9.234;2022-08-01T14:16:04;37.30;53.60
40670;DHT22;26355;45.528;9.234;2022-08-01T14:18:30;37.50;54.00
40670;DHT22;26355;45.528;9.234;2022-08-01T14:20:55;37.50;53.90
40670;DHT22;26355;45.528;9.234;2022-08-01T14:23:21;37.60;54.20
40670;DHT22;26355;45.528;9.234;2022-08-01T14:25:46;37.70;54.20
40670;DHT22;26355;45.528;9.234;2022-08-01T14:28:12;37.70;53.80
40670;DHT22;26355;45.528;9.234;2022-08-01T14:30:37;37.50;53.10
40670;DHT22;26355;45.528;9.234;2022-08-01T14:33:03;37.40;53.20
40670;DHT22;26355;45.528;9.234;2022-08-01T14:35:29;37.30;53.40
40670;DHT22;26355;45.528;9.234;2022-08-01T14:37:54;37.30;54.00
40670;DHT22;26355;45.528;9.234;2022-08-01T14:40:20;37.20;53.70
40670;DHT22;26355;45.528;9.234;2022-08-01T14:42:45;37.10;53.80
40670;DHT22;26355;45.528;9.234;2022-08-01T14:45:12;36.90;53.90
40670;DHT22;26355;45.528;9.234;2022-08-01T14:47:40;36.90;53.90
40670;DHT22;26355;45.528;9.234;2022-08-01T14:50:08;36.90;53.70
40670;DHT22;26355;45.528;9.234;2022-08-01T14:52:35;37.10;54.10
40670;DHT22;26355;45.528;9.234;2022-08-01T14:55:02;37.20;54.00
40670;DHT22;26355;45.528;9.234;2022-08-01T14:57:28;37.20;54.20
40670;DHT22;26355;45.528;9.234;2022-08-01T14:59:54;37.30;53.70
40670;DHT22;26355;45.528;9.234;2022-08-01T15:02:20;37.10;53.60
40670;DHT22;26355;45.528;9.234;2022-08-01T15:04:47;37.00;53.70
40670;DHT22;26355;45.528;9.234;2022-08-01T15:07:13;36.90;53.60
40670;DHT22;26355;45.528;9.234;2022-08-01T15:09:39;36.90;54.10
40670;DHT22;26355;45.528;9.234;2022-08-01T15:12:05;36.90;53.80
40670;DHT22;26355;45.528;9.234;2022-08-01T15:14:31;36.80;52.80
40670;DHT22;26355;45.528;9.234;2022-08-01T15:19:41;36.90;52.60
40670;DHT22;26355;45.528;9.234;2022-08-01T15:22:07;36.90;52.30
40670;DHT22;26355;45.528;9.234;2022-08-01T15:24:33;36.90;52.40
40670;DHT22;26355;45.528;9.234;2022-08-01T15:26:58;36.90;52.10
40670;DHT22;26355;45.528;9.234;2022-08-01T15:29:24;36.90;52.50
40670;DHT22;26355;45.528;9.234;2022-08-01T15:31:50;36.90;52.90
40670;DHT22;26355;45.528;9.234;2022-08-01T15:34:15;36.90;52.80
40670;DHT22;26355;45.528;9.234;2022-08-01T15:36:41;36.90;53.00
40670;DHT22;26355;45.528;9.234;2022-08-01T15:39:09;36.90;52.90
40670;DHT22;26355;45.528;9.234;2022-08-01T15:41:34;37.00;52.80
40670;DHT22;26355;45.528;9.234;2022-08-01T15:44:00;37.10;52.30
40670;DHT22;26355;45.528;9.234;2022-08-01T15:46:26;37.20;52.20
40670;DHT22;26355;45.528;9.234;2022-08-01T15:48:51;37.20;51.50
40670;DHT22;26355;45.528;9.234;2022-08-01T15:51:17;37.00;51.30
40670;DHT22;26355;45.528;9.234;2022-08-01T15:53:43;36.90;51.30
40670;DHT22;26355;45.528;9.234;2022-08-01T15:56:09;36.90;51.00
40670;DHT22;26355;45.528;9.234;2022-08-01T15:58:35;36.80;51.60
40670;DHT22;26355;45.528;9.234;2022-08-01T16:01:00;36.80;52.00
40670;DHT22;26355;45.528;9.234;2022-08-01T16:03:26;36.80;52.40
40670;DHT22;26355;45.528;9.234;2022-08-01T16:05:53;36.90;52.40
40670;DHT22;26355;45.528;9.234;2022-08-01T16:08:19;37.00;52.20
40670;DHT22;26355;45.528;9.234;2022-08-01T16:10:44;37.10;52.20
40670;DHT22;26355;45.528;9.234;2022-08-01T16:13:10;37.10;52.30